Terminal Aerodrome Forecast
Issued by NWS

Home | Current Version | Previous Version | Text Only | Print | Product List | Glossary On
Versions: 1 2 3 4 5 6 7 8 9 10 11 12 13 14
121
FTUS41 KPHI 080559 AAA
TAFMIV
TAF AMD
KMIV 080559Z 0806/0906 02012G20KT P6SM OVC100
     FM080900 02012G20KT P6SM OVC025
      TEMPO 0809/0811 5SM -RASN
     FM090000 06008KT P6SM OVC015=

USA.gov is the U.S. government's official web portal to all federal, state and local government web resources and services.